METAR Data
IDs: Format: Raw Decoded Include TAF

Data at: 1155 UTC 24 May 2022

KBEA 241155Z AUTO 19005KT 10SM CLR 22/17 A2970 RMK AO2 T02170173 10260 20211